sensor_id;sensor_type;location;lat;lon;timestamp;P1;durP1;ratioP1;P2;durP2;ratioP2
2638;SDS011;1329;51.384;7.122;2023-05-07T00:00:39;2.70;;;2.50;;
2638;SDS011;1329;51.384;7.122;2023-05-07T00:03:11;2.75;;;2.38;;
2638;SDS011;1329;51.384;7.122;2023-05-07T00:05:39;2.88;;;2.25;;
2638;SDS011;1329;51.384;7.122;2023-05-07T00:08:21;3.00;;;2.70;;
2638;SDS011;1329;51.384;7.122;2023-05-07T00:11:01;3.35;;;2.75;;
2638;SDS011;1329;51.384;7.122;2023-05-07T00:13:36;2.80;;;2.60;;
2638;SDS011;1329;51.384;7.122;2023-05-07T00:16:03;3.10;;;2.80;;
2638;SDS011;1329;51.384;7.122;2023-05-07T00:18:38;2.97;;;2.70;;
2638;SDS011;1329;51.384;7.122;2023-05-07T00:21:11;3.55;;;2.75;;
2638;SDS011;1329;51.384;7.122;2023-05-07T00:23:54;3.13;;;2.80;;
2638;SDS011;1329;51.384;7.122;2023-05-07T00:26:25;3.08;;;2.78;;
2638;SDS011;1329;51.384;7.122;2023-05-07T00:28:54;2.67;;;2.47;;
2638;SDS011;1329;51.384;7.122;2023-05-07T00:31:22;3.67;;;2.97;;
2638;SDS011;1329;51.384;7.122;2023-05-07T00:34:04;3.35;;;3.05;;
2638;SDS011;1329;51.384;7.122;2023-05-07T00:36:35;3.25;;;2.75;;
2638;SDS011;1329;51.384;7.122;2023-05-07T00:39:09;3.20;;;2.88;;
2638;SDS011;1329;51.384;7.122;2023-05-07T00:41:36;3.25;;;2.80;;
2638;SDS011;1329;51.384;7.122;2023-05-07T00:44:03;2.60;;;2.38;;
2638;SDS011;1329;51.384;7.122;2023-05-07T00:46:31;3.88;;;2.72;;
2638;SDS011;1329;51.384;7.122;2023-05-07T00:48:59;2.60;;;2.28;;
2638;SDS011;1329;51.384;7.122;2023-05-07T00:51:27;2.42;;;2.17;;
2638;SDS011;1329;51.384;7.122;2023-05-07T00:53:56;2.63;;;2.20;;
2638;SDS011;1329;51.384;7.122;2023-05-07T00:56:24;2.58;;;2.30;;
2638;SDS011;1329;51.384;7.122;2023-05-07T00:58:51;2.13;;;1.95;;
2638;SDS011;1329;51.384;7.122;2023-05-07T01:01:19;2.30;;;2.10;;
2638;SDS011;1329;51.384;7.122;2023-05-07T01:03:46;3.25;;;2.25;;
2638;SDS011;1329;51.384;7.122;2023-05-07T01:06:13;3.80;;;2.58;;
2638;SDS011;1329;51.384;7.122;2023-05-07T01:08:42;4.38;;;2.72;;
2638;SDS011;1329;51.384;7.122;2023-05-07T01:11:09;3.47;;;2.90;;
2638;SDS011;1329;51.384;7.122;2023-05-07T01:13:38;2.85;;;2.65;;
2638;SDS011;1329;51.384;7.122;2023-05-07T01:16:06;3.03;;;2.72;;
2638;SDS011;1329;51.384;7.122;2023-05-07T01:18:35;2.88;;;2.67;;
2638;SDS011;1329;51.384;7.122;2023-05-07T01:21:02;2.78;;;2.58;;
2638;SDS011;1329;51.384;7.122;2023-05-07T01:23:32;3.10;;;2.80;;
2638;SDS011;1329;51.384;7.122;2023-05-07T01:26:01;2.70;;;2.50;;
2638;SDS011;1329;51.384;7.122;2023-05-07T01:28:28;3.13;;;2.83;;
2638;SDS011;1329;51.384;7.122;2023-05-07T01:31:04;3.35;;;2.70;;
2638;SDS011;1329;51.384;7.122;2023-05-07T01:33:33;2.80;;;2.55;;
2638;SDS011;1329;51.384;7.122;2023-05-07T01:36:02;3.50;;;3.20;;
2638;SDS011;1329;51.384;7.122;2023-05-07T01:38:32;3.40;;;3.00;;
2638;SDS011;1329;51.384;7.122;2023-05-07T01:41:00;3.95;;;3.00;;
2638;SDS011;1329;51.384;7.122;2023-05-07T01:43:28;3.35;;;3.05;;
2638;SDS011;1329;51.384;7.122;2023-05-07T01:45:55;3.20;;;3.00;;
2638;SDS011;1329;51.384;7.122;2023-05-07T01:48:24;3.78;;;3.28;;
2638;SDS011;1329;51.384;7.122;2023-05-07T01:50:51;3.40;;;3.10;;
2638;SDS011;1329;51.384;7.122;2023-05-07T01:53:21;4.10;;;3.70;;
2638;SDS011;1329;51.384;7.122;2023-05-07T01:55:49;4.47;;;3.60;;
2638;SDS011;1329;51.384;7.122;2023-05-07T01:58:16;3.38;;;3.08;;
2638;SDS011;1329;51.384;7.122;2023-05-07T02:00:43;3.88;;;3.30;;
2638;SDS011;1329;51.384;7.122;2023-05-07T02:03:10;4.10;;;3.42;;
2638;SDS011;1329;51.384;7.122;2023-05-07T02:05:37;3.63;;;3.33;;
2638;SDS011;1329;51.384;7.122;2023-05-07T02:08:04;3.35;;;3.05;;
2638;SDS011;1329;51.384;7.122;2023-05-07T02:10:31;3.30;;;3.00;;
2638;SDS011;1329;51.384;7.122;2023-05-07T02:12:59;3.13;;;2.85;;
2638;SDS011;1329;51.384;7.122;2023-05-07T02:15:27;3.30;;;3.00;;
2638;SDS011;1329;51.384;7.122;2023-05-07T02:18:01;3.42;;;3.13;;
2638;SDS011;1329;51.384;7.122;2023-05-07T02:20:30;3.30;;;3.00;;
2638;SDS011;1329;51.384;7.122;2023-05-07T02:22:56;3.85;;;3.55;;
2638;SDS011;1329;51.384;7.122;2023-05-07T02:25:23;3.67;;;3.38;;
2638;SDS011;1329;51.384;7.122;2023-05-07T02:27:50;3.85;;;3.30;;
2638;SDS011;1329;51.384;7.122;2023-05-07T02:30:19;3.75;;;3.45;;
2638;SDS011;1329;51.384;7.122;2023-05-07T02:32:46;3.40;;;3.10;;
2638;SDS011;1329;51.384;7.122;2023-05-07T02:35:13;4.57;;;2.92;;
2638;SDS011;1329;51.384;7.122;2023-05-07T02:37:40;3.38;;;3.08;;
2638;SDS011;1329;51.384;7.122;2023-05-07T02:40:07;3.60;;;3.08;;
2638;SDS011;1329;51.384;7.122;2023-05-07T02:42:36;3.80;;;3.45;;
2638;SDS011;1329;51.384;7.122;2023-05-07T02:45:03;3.33;;;2.88;;
2638;SDS011;1329;51.384;7.122;2023-05-07T02:47:32;2.97;;;2.72;;
2638;SDS011;1329;51.384;7.122;2023-05-07T02:49:59;2.90;;;2.70;;
2638;SDS011;1329;51.384;7.122;2023-05-07T02:52:26;2.97;;;2.78;;
2638;SDS011;1329;51.384;7.122;2023-05-07T02:54:54;2.90;;;2.58;;
2638;SDS011;1329;51.384;7.122;2023-05-07T02:57:21;3.08;;;2.78;;
2638;SDS011;1329;51.384;7.122;2023-05-07T02:59:48;3.50;;;3.20;;
2638;SDS011;1329;51.384;7.122;2023-05-07T03:02:15;4.40;;;3.13;;
2638;SDS011;1329;51.384;7.122;2023-05-07T03:04:46;3.25;;;2.95;;
2638;SDS011;1329;51.384;7.122;2023-05-07T03:07:13;3.17;;;2.85;;
2638;SDS011;1329;51.384;7.122;2023-05-07T03:09:40;3.15;;;2.85;;
2638;SDS011;1329;51.384;7.122;2023-05-07T03:12:08;3.67;;;3.25;;
2638;SDS011;1329;51.384;7.122;2023-05-07T03:14:35;3.58;;;2.85;;
2638;SDS011;1329;51.384;7.122;2023-05-07T03:17:02;3.25;;;3.05;;
2638;SDS011;1329;51.384;7.122;2023-05-07T03:19:29;3.05;;;2.72;;
2638;SDS011;1329;51.384;7.122;2023-05-07T03:21:57;3.35;;;3.05;;
2638;SDS011;1329;51.384;7.122;2023-05-07T03:24:24;3.08;;;2.85;;
2638;SDS011;1329;51.384;7.122;2023-05-07T03:26:51;3.42;;;3.00;;
2638;SDS011;1329;51.384;7.122;2023-05-07T03:29:18;3.17;;;2.80;;
2638;SDS011;1329;51.384;7.122;2023-05-07T03:31:45;4.30;;;3.13;;
2638;SDS011;1329;51.384;7.122;2023-05-07T03:34:12;2.88;;;2.67;;
2638;SDS011;1329;51.384;7.122;2023-05-07T03:36:39;3.25;;;2.90;;
2638;SDS011;1329;51.384;7.122;2023-05-07T03:39:08;3.38;;;2.90;;
2638;SDS011;1329;51.384;7.122;2023-05-07T03:41:35;3.65;;;2.90;;
2638;SDS011;1329;51.384;7.122;2023-05-07T03:44:02;3.08;;;2.75;;
2638;SDS011;1329;51.384;7.122;2023-05-07T03:46:29;3.28;;;2.70;;
2638;SDS011;1329;51.384;7.122;2023-05-07T03:48:57;4.05;;;2.67;;
2638;SDS011;1329;51.384;7.122;2023-05-07T03:51:24;3.00;;;2.60;;
2638;SDS011;1329;51.384;7.122;2023-05-07T03:53:51;2.67;;;2.47;;
2638;SDS011;1329;51.384;7.122;2023-05-07T03:56:20;2.97;;;2.55;;
2638;SDS011;1329;51.384;7.122;2023-05-07T03:58:47;3.28;;;2.33;;
2638;SDS011;1329;51.384;7.122;2023-05-07T04:01:14;2.45;;;2.00;;
2638;SDS011;1329;51.384;7.122;2023-05-07T04:03:41;2.17;;;1.98;;
2638;SDS011;1329;51.384;7.122;2023-05-07T04:06:08;2.78;;;2.45;;
2638;SDS011;1329;51.384;7.122;2023-05-07T04:08:35;2.50;;;2.33;;
2638;SDS011;1329;51.384;7.122;2023-05-07T04:11:02;2.88;;;2.50;;
2638;SDS011;1329;51.384;7.122;2023-05-07T04:13:30;2.72;;;2.53;;
2638;SDS011;1329;51.384;7.122;2023-05-07T04:15:58;2.63;;;2.42;;
2638;SDS011;1329;51.384;7.122;2023-05-07T04:18:27;2.63;;;2.42;;
2638;SDS011;1329;51.384;7.122;2023-05-07T04:20:54;3.00;;;2.70;;
2638;SDS011;1329;51.384;7.122;2023-05-07T04:23:21;2.40;;;2.20;;
2638;SDS011;1329;51.384;7.122;2023-05-07T04:25:48;2.50;;;2.30;;
2638;SDS011;1329;51.384;7.122;2023-05-07T04:28:17;2.85;;;2.30;;
2638;SDS011;1329;51.384;7.122;2023-05-07T04:30:45;2.60;;;2.40;;
2638;SDS011;1329;51.384;7.122;2023-05-07T04:33:13;2.65;;;2.30;;
2638;SDS011;1329;51.384;7.122;2023-05-07T04:35:41;2.35;;;2.25;;
2638;SDS011;1329;51.384;7.122;2023-05-07T04:38:08;3.40;;;2.30;;
2638;SDS011;1329;51.384;7.122;2023-05-07T04:40:36;2.30;;;2.13;;
2638;SDS011;1329;51.384;7.122;2023-05-07T04:43:03;2.40;;;2.20;;
2638;SDS011;1329;51.384;7.122;2023-05-07T04:45:31;2.60;;;2.40;;
2638;SDS011;1329;51.384;7.122;2023-05-07T04:48:00;2.42;;;2.22;;
2638;SDS011;1329;51.384;7.122;2023-05-07T04:50:26;3.13;;;2.30;;
2638;SDS011;1329;51.384;7.122;2023-05-07T04:52:54;2.42;;;2.22;;
2638;SDS011;1329;51.384;7.122;2023-05-07T04:55:20;2.90;;;2.28;;
2638;SDS011;1329;51.384;7.122;2023-05-07T04:57:47;2.70;;;2.50;;
2638;SDS011;1329;51.384;7.122;2023-05-07T05:00:15;2.45;;;2.25;;
2638;SDS011;1329;51.384;7.122;2023-05-07T05:02:44;2.92;;;2.60;;
2638;SDS011;1329;51.384;7.122;2023-05-07T05:05:12;2.50;;;2.30;;
2638;SDS011;1329;51.384;7.122;2023-05-07T05:07:39;4.80;;;2.42;;
2638;SDS011;1329;51.384;7.122;2023-05-07T05:10:06;3.78;;;2.53;;
2638;SDS011;1329;51.384;7.122;2023-05-07T05:12:33;2.58;;;2.38;;
2638;SDS011;1329;51.384;7.122;2023-05-07T05:15:01;2.33;;;2.13;;
2638;SDS011;1329;51.384;7.122;2023-05-07T05:17:28;3.47;;;2.35;;
2638;SDS011;1329;51.384;7.122;2023-05-07T05:19:55;2.60;;;2.40;;
2638;SDS011;1329;51.384;7.122;2023-05-07T05:22:23;2.78;;;2.20;;
2638;SDS011;1329;51.384;7.122;2023-05-07T05:24:50;2.38;;;2.17;;
2638;SDS011;1329;51.384;7.122;2023-05-07T05:27:17;2.40;;;2.20;;
2638;SDS011;1329;51.384;7.122;2023-05-07T05:29:44;2.60;;;2.40;;
2638;SDS011;1329;51.384;7.122;2023-05-07T05:32:11;2.20;;;2.00;;
2638;SDS011;1329;51.384;7.122;2023-05-07T05:34:38;2.28;;;2.17;;
2638;SDS011;1329;51.384;7.122;2023-05-07T05:37:05;3.15;;;2.83;;
2638;SDS011;1329;51.384;7.122;2023-05-07T05:39:33;2.50;;;2.30;;
2638;SDS011;1329;51.384;7.122;2023-05-07T05:42:00;2.70;;;2.30;;
2638;SDS011;1329;51.384;7.122;2023-05-07T05:44:27;2.60;;;2.40;;
2638;SDS011;1329;51.384;7.122;2023-05-07T05:46:54;2.83;;;2.55;;
2638;SDS011;1329;51.384;7.122;2023-05-07T05:49:22;2.90;;;2.70;;
2638;SDS011;1329;51.384;7.122;2023-05-07T05:51:49;4.30;;;3.28;;
2638;SDS011;1329;51.384;7.122;2023-05-07T05:54:16;3.20;;;2.90;;
2638;SDS011;1329;51.384;7.122;2023-05-07T05:56:45;3.90;;;3.08;;
2638;SDS011;1329;51.384;7.122;2023-05-07T05:59:12;2.80;;;2.60;;
2638;SDS011;1329;51.384;7.122;2023-05-07T06:01:39;3.20;;;2.67;;
2638;SDS011;1329;51.384;7.122;2023-05-07T06:04:06;2.85;;;2.65;;
2638;SDS011;1329;51.384;7.122;2023-05-07T06:06:33;3.47;;;3.17;;
2638;SDS011;1329;51.384;7.122;2023-05-07T06:09:00;3.50;;;3.20;;
2638;SDS011;1329;51.384;7.122;2023-05-07T06:11:27;4.05;;;3.15;;
2638;SDS011;1329;51.384;7.122;2023-05-07T06:13:55;3.55;;;3.20;;
2638;SDS011;1329;51.384;7.122;2023-05-07T06:16:24;3.78;;;3.15;;
2638;SDS011;1329;51.384;7.122;2023-05-07T06:18:51;3.13;;;2.90;;
2638;SDS011;1329;51.384;7.122;2023-05-07T06:21:18;3.38;;;2.70;;
2638;SDS011;1329;51.384;7.122;2023-05-07T06:23:45;3.58;;;3.28;;
2638;SDS011;1329;51.384;7.122;2023-05-07T06:26:11;3.83;;;3.05;;
2638;SDS011;1329;51.384;7.122;2023-05-07T06:28:38;3.15;;;2.85;;
2638;SDS011;1329;51.384;7.122;2023-05-07T06:31:14;3.00;;;2.70;;
2638;SDS011;1329;51.384;7.122;2023-05-07T06:33:42;3.50;;;2.75;;
2638;SDS011;1329;51.384;7.122;2023-05-07T06:36:10;3.38;;;3.08;;
2638;SDS011;1329;51.384;7.122;2023-05-07T06:38:37;3.40;;;3.10;;
2638;SDS011;1329;51.384;7.122;2023-05-07T06:41:05;3.42;;;3.13;;
2638;SDS011;1329;51.384;7.122;2023-05-07T06:43:32;3.25;;;2.95;;
2638;SDS011;1329;51.384;7.122;2023-05-07T06:45:59;3.08;;;2.88;;
2638;SDS011;1329;51.384;7.122;2023-05-07T06:48:28;3.33;;;3.05;;
2638;SDS011;1329;51.384;7.122;2023-05-07T06:50:54;2.92;;;2.72;;
2638;SDS011;1329;51.384;7.122;2023-05-07T06:53:22;2.72;;;2.50;;
2638;SDS011;1329;51.384;7.122;2023-05-07T06:55:49;3.08;;;2.80;;
2638;SDS011;1329;51.384;7.122;2023-05-07T06:58:17;3.10;;;2.80;;
2638;SDS011;1329;51.384;7.122;2023-05-07T07:00:43;3.20;;;2.90;;
2638;SDS011;1329;51.384;7.122;2023-05-07T07:03:11;3.00;;;2.70;;
2638;SDS011;1329;51.384;7.122;2023-05-07T07:05:39;2.88;;;2.67;;
2638;SDS011;1329;51.384;7.122;2023-05-07T07:08:06;2.95;;;2.63;;
2638;SDS011;1329;51.384;7.122;2023-05-07T07:10:33;3.55;;;2.78;;
2638;SDS011;1329;51.384;7.122;2023-05-07T07:13:00;2.83;;;2.63;;
2638;SDS011;1329;51.384;7.122;2023-05-07T07:15:27;2.95;;;2.70;;
2638;SDS011;1329;51.384;7.122;2023-05-07T07:17:54;2.72;;;2.53;;
2638;SDS011;1329;51.384;7.122;2023-05-07T07:20:21;3.88;;;2.83;;
2638;SDS011;1329;51.384;7.122;2023-05-07T07:22:50;2.65;;;2.45;;
2638;SDS011;1329;51.384;7.122;2023-05-07T07:25:17;2.80;;;2.60;;
2638;SDS011;1329;51.384;7.122;2023-05-07T07:27:44;4.15;;;2.88;;
2638;SDS011;1329;51.384;7.122;2023-05-07T07:30:11;2.75;;;2.55;;
2638;SDS011;1329;51.384;7.122;2023-05-07T07:32:38;2.70;;;2.50;;
2638;SDS011;1329;51.384;7.122;2023-05-07T07:35:06;2.95;;;2.70;;
2638;SDS011;1329;51.384;7.122;2023-05-07T07:37:34;3.38;;;3.00;;
2638;SDS011;1329;51.384;7.122;2023-05-07T07:40:03;4.25;;;2.97;;
2638;SDS011;1329;51.384;7.122;2023-05-07T07:42:31;3.22;;;2.92;;
2638;SDS011;1329;51.384;7.122;2023-05-07T07:44:58;3.42;;;3.05;;
2638;SDS011;1329;51.384;7.122;2023-05-07T07:47:25;3.03;;;2.78;;
2638;SDS011;1329;51.384;7.122;2023-05-07T07:49:52;3.80;;;2.88;;
2638;SDS011;1329;51.384;7.122;2023-05-07T07:52:19;2.90;;;2.60;;
2638;SDS011;1329;51.384;7.122;2023-05-07T07:54:46;2.95;;;2.75;;
2638;SDS011;1329;51.384;7.122;2023-05-07T07:57:14;3.38;;;2.97;;
2638;SDS011;1329;51.384;7.122;2023-05-07T07:59:41;3.28;;;2.72;;
2638;SDS011;1329;51.384;7.122;2023-05-07T08:02:08;3.35;;;3.05;;
2638;SDS011;1329;51.384;7.122;2023-05-07T08:04:35;3.00;;;2.72;;
2638;SDS011;1329;51.384;7.122;2023-05-07T08:07:02;2.80;;;2.50;;
2638;SDS011;1329;51.384;7.122;2023-05-07T08:09:29;3.25;;;2.95;;
2638;SDS011;1329;51.384;7.122;2023-05-07T08:11:56;3.00;;;2.80;;
2638;SDS011;1329;51.384;7.122;2023-05-07T08:14:25;3.03;;;2.58;;
2638;SDS011;1329;51.384;7.122;2023-05-07T08:16:53;2.55;;;2.35;;
2638;SDS011;1329;51.384;7.122;2023-05-07T08:19:20;3.10;;;2.63;;
2638;SDS011;1329;51.384;7.122;2023-05-07T08:21:47;3.33;;;2.28;;
2638;SDS011;1329;51.384;7.122;2023-05-07T08:24:14;3.03;;;2.72;;
2638;SDS011;1329;51.384;7.122;2023-05-07T08:26:42;3.05;;;2.50;;
2638;SDS011;1329;51.384;7.122;2023-05-07T08:29:10;2.22;;;2.10;;
2638;SDS011;1329;51.384;7.122;2023-05-07T08:31:38;3.08;;;2.08;;
2638;SDS011;1329;51.384;7.122;2023-05-07T08:34:05;2.60;;;2.40;;
2638;SDS011;1329;51.384;7.122;2023-05-07T08:36:33;2.50;;;2.30;;
2638;SDS011;1329;51.384;7.122;2023-05-07T08:39:00;2.30;;;2.10;;
2638;SDS011;1329;51.384;7.122;2023-05-07T08:41:27;2.83;;;2.40;;
2638;SDS011;1329;51.384;7.122;2023-05-07T08:43:54;2.03;;;1.83;;
2638;SDS011;1329;51.384;7.122;2023-05-07T08:46:25;2.55;;;2.35;;
2638;SDS011;1329;51.384;7.122;2023-05-07T08:48:59;2.30;;;2.10;;
2638;SDS011;1329;51.384;7.122;2023-05-07T08:51:26;3.15;;;2.03;;
2638;SDS011;1329;51.384;7.122;2023-05-07T08:53:53;2.30;;;2.10;;
2638;SDS011;1329;51.384;7.122;2023-05-07T08:56:20;2.70;;;2.35;;
2638;SDS011;1329;51.384;7.122;2023-05-07T08:58:47;2.55;;;2.35;;
2638;SDS011;1329;51.384;7.122;2023-05-07T09:01:21;1.85;;;1.73;;
2638;SDS011;1329;51.384;7.122;2023-05-07T09:03:49;2.80;;;2.08;;
2638;SDS011;1329;51.384;7.122;2023-05-07T09:06:18;2.50;;;1.73;;
2638;SDS011;1329;51.384;7.122;2023-05-07T09:08:48;2.10;;;1.90;;
2638;SDS011;1329;51.384;7.122;2023-05-07T09:11:19;1.85;;;1.75;;
2638;SDS011;1329;51.384;7.122;2023-05-07T09:13:48;2.10;;;2.00;;
2638;SDS011;1329;51.384;7.122;2023-05-07T09:16:20;1.77;;;1.67;;
2638;SDS011;1329;51.384;7.122;2023-05-07T09:18:50;3.03;;;1.63;;
2638;SDS011;1329;51.384;7.122;2023-05-07T09:21:20;2.17;;;1.50;;
2638;SDS011;1329;51.384;7.122;2023-05-07T09:23:48;2.17;;;1.90;;
2638;SDS011;1329;51.384;7.122;2023-05-07T09:26:17;2.78;;;1.65;;
2638;SDS011;1329;51.384;7.122;2023-05-07T09:28:45;1.50;;;1.40;;
2638;SDS011;1329;51.384;7.122;2023-05-07T09:31:12;1.80;;;1.70;;
2638;SDS011;1329;51.384;7.122;2023-05-07T09:33:39;1.75;;;1.60;;
2638;SDS011;1329;51.384;7.122;2023-05-07T09:36:07;2.00;;;1.50;;
2638;SDS011;1329;51.384;7.122;2023-05-07T09:38:37;1.70;;;1.58;;
2638;SDS011;1329;51.384;7.122;2023-05-07T09:41:05;1.30;;;1.20;;
2638;SDS011;1329;51.384;7.122;2023-05-07T09:43:34;1.73;;;1.33;;
2638;SDS011;1329;51.384;7.122;2023-05-07T09:46:05;1.20;;;1.10;;
2638;SDS011;1329;51.384;7.122;2023-05-07T09:48:37;1.00;;;0.90;;
2638;SDS011;1329;51.384;7.122;2023-05-07T09:51:08;1.00;;;0.90;;
2638;SDS011;1329;51.384;7.122;2023-05-07T09:53:45;1.05;;;0.98;;
2638;SDS011;1329;51.384;7.122;2023-05-07T09:56:13;1.50;;;1.40;;
2638;SDS011;1329;51.384;7.122;2023-05-07T09:58:41;1.30;;;1.20;;
2638;SDS011;1329;51.384;7.122;2023-05-07T10:01:10;1.55;;;1.00;;
2638;SDS011;1329;51.384;7.122;2023-05-07T10:03:38;1.30;;;1.20;;
2638;SDS011;1329;51.384;7.122;2023-05-07T10:06:08;1.52;;;1.20;;
2638;SDS011;1329;51.384;7.122;2023-05-07T10:08:36;2.10;;;1.23;;
2638;SDS011;1329;51.384;7.122;2023-05-07T10:11:05;1.80;;;1.45;;
2638;SDS011;1329;51.384;7.122;2023-05-07T10:13:32;1.23;;;1.08;;
2638;SDS011;1329;51.384;7.122;2023-05-07T10:16:03;1.58;;;1.10;;
2638;SDS011;1329;51.384;7.122;2023-05-07T10:18:31;1.55;;;1.17;;
2638;SDS011;1329;51.384;7.122;2023-05-07T10:21:08;1.23;;;1.10;;
2638;SDS011;1329;51.384;7.122;2023-05-07T10:23:43;1.10;;;1.00;;
2638;SDS011;1329;51.384;7.122;2023-05-07T10:26:13;1.00;;;1.00;;
2638;SDS011;1329;51.384;7.122;2023-05-07T10:28:42;1.60;;;1.20;;
2638;SDS011;1329;51.384;7.122;2023-05-07T10:31:21;1.67;;;1.30;;
2638;SDS011;1329;51.384;7.122;2023-05-07T10:34:16;2.20;;;1.38;;
2638;SDS011;1329;51.384;7.122;2023-05-07T10:36:48;1.40;;;1.23;;
2638;SDS011;1329;51.384;7.122;2023-05-07T10:39:16;1.63;;;1.38;;
2638;SDS011;1329;51.384;7.122;2023-05-07T10:41:45;1.55;;;1.45;;
2638;SDS011;1329;51.384;7.122;2023-05-07T10:44:15;1.58;;;1.45;;
2638;SDS011;1329;51.384;7.122;2023-05-07T10:58:57;1.85;;;1.75;;
2638;SDS011;1329;51.384;7.122;2023-05-07T11:01:59;2.15;;;1.95;;
2638;SDS011;1329;51.384;7.122;2023-05-07T11:04:29;2.40;;;2.17;;
2638;SDS011;1329;51.384;7.122;2023-05-07T11:07:10;2.80;;;2.40;;
2638;SDS011;1329;51.384;7.122;2023-05-07T11:09:54;2.83;;;2.10;;
2638;SDS011;1329;51.384;7.122;2023-05-07T11:12:48;2.70;;;2.42;;
2638;SDS011;1329;51.384;7.122;2023-05-07T11:18:18;2.20;;;2.08;;
2638;SDS011;1329;51.384;7.122;2023-05-07T11:20:52;2.45;;;2.25;;
2638;SDS011;1329;51.384;7.122;2023-05-07T11:26:41;2.53;;;2.30;;
2638;SDS011;1329;51.384;7.122;2023-05-07T11:29:12;2.70;;;2.50;;
2638;SDS011;1329;51.384;7.122;2023-05-07T11:31:42;3.58;;;2.55;;
2638;SDS011;1329;51.384;7.122;2023-05-07T11:34:09;4.28;;;2.88;;
2638;SDS011;1329;51.384;7.122;2023-05-07T11:36:42;2.55;;;2.35;;
2638;SDS011;1329;51.384;7.122;2023-05-07T11:39:24;3.65;;;2.63;;
2638;SDS011;1329;51.384;7.122;2023-05-07T11:41:56;4.57;;;3.70;;
2638;SDS011;1329;51.384;7.122;2023-05-07T11:44:24;3.00;;;2.55;;
2638;SDS011;1329;51.384;7.122;2023-05-07T11:47:10;3.03;;;2.80;;
2638;SDS011;1329;51.384;7.122;2023-05-07T11:49:51;2.80;;;2.60;;
2638;SDS011;1329;51.384;7.122;2023-05-07T11:52:35;2.78;;;2.58;;
2638;SDS011;1329;51.384;7.122;2023-05-07T11:55:20;2.70;;;2.50;;
2638;SDS011;1329;51.384;7.122;2023-05-07T11:58:01;3.03;;;2.72;;
2638;SDS011;1329;51.384;7.122;2023-05-07T12:00:37;2.97;;;2.67;;
2638;SDS011;1329;51.384;7.122;2023-05-07T12:06:18;2.53;;;2.33;;
2638;SDS011;1329;51.384;7.122;2023-05-07T12:08:48;2.70;;;2.50;;
2638;SDS011;1329;51.384;7.122;2023-05-07T12:11:22;2.50;;;2.25;;
2638;SDS011;1329;51.384;7.122;2023-05-07T12:14:04;2.90;;;2.70;;
2638;SDS011;1329;51.384;7.122;2023-05-07T12:17:08;3.08;;;2.78;;
2638;SDS011;1329;51.384;7.122;2023-05-07T12:23:31;3.08;;;2.78;;
2638;SDS011;1329;51.384;7.122;2023-05-07T12:27:15;2.90;;;2.65;;
2638;SDS011;1329;51.384;7.122;2023-05-07T12:29:51;4.13;;;2.78;;
2638;SDS011;1329;51.384;7.122;2023-05-07T12:32:52;2.67;;;2.47;;
2638;SDS011;1329;51.384;7.122;2023-05-07T12:36:02;2.53;;;2.33;;
2638;SDS011;1329;51.384;7.122;2023-05-07T12:41:10;2.42;;;2.22;;
2638;SDS011;1329;51.384;7.122;2023-05-07T12:46:54;2.88;;;2.67;;
2638;SDS011;1329;51.384;7.122;2023-05-07T12:49:43;2.85;;;2.65;;
2638;SDS011;1329;51.384;7.122;2023-05-07T12:52:54;3.47;;;3.03;;
2638;SDS011;1329;51.384;7.122;2023-05-07T12:55:34;3.38;;;3.08;;
2638;SDS011;1329;51.384;7.122;2023-05-07T12:58:19;3.17;;;2.88;;
2638;SDS011;1329;51.384;7.122;2023-05-07T13:03:40;3.22;;;2.92;;
2638;SDS011;1329;51.384;7.122;2023-05-07T13:06:07;3.53;;;3.22;;
2638;SDS011;1329;51.384;7.122;2023-05-07T13:08:40;3.85;;;3.53;;
2638;SDS011;1329;51.384;7.122;2023-05-07T13:11:09;3.63;;;3.33;;
2638;SDS011;1329;51.384;7.122;2023-05-07T13:13:38;3.75;;;3.33;;
2638;SDS011;1329;51.384;7.122;2023-05-07T13:16:07;3.72;;;3.42;;
2638;SDS011;1329;51.384;7.122;2023-05-07T13:18:37;4.28;;;3.88;;
2638;SDS011;1329;51.384;7.122;2023-05-07T13:21:05;4.22;;;3.92;;
2638;SDS011;1329;51.384;7.122;2023-05-07T13:23:33;3.90;;;3.50;;
2638;SDS011;1329;51.384;7.122;2023-05-07T13:26:01;3.97;;;3.67;;
2638;SDS011;1329;51.384;7.122;2023-05-07T13:28:29;4.65;;;4.15;;
2638;SDS011;1329;51.384;7.122;2023-05-07T13:30:56;3.85;;;3.55;;
2638;SDS011;1329;51.384;7.122;2023-05-07T13:33:23;3.95;;;3.60;;
2638;SDS011;1329;51.384;7.122;2023-05-07T13:35:50;4.63;;;3.40;;
2638;SDS011;1329;51.384;7.122;2023-05-07T13:38:17;3.72;;;3.42;;
2638;SDS011;1329;51.384;7.122;2023-05-07T13:40:44;3.35;;;3.08;;
2638;SDS011;1329;51.384;7.122;2023-05-07T13:43:12;3.90;;;3.60;;
2638;SDS011;1329;51.384;7.122;2023-05-07T13:45:39;3.38;;;3.13;;
2638;SDS011;1329;51.384;7.122;2023-05-07T13:48:06;3.92;;;3.63;;
2638;SDS011;1329;51.384;7.122;2023-05-07T13:50:33;4.00;;;3.70;;
2638;SDS011;1329;51.384;7.122;2023-05-07T13:53:00;4.07;;;3.75;;
2638;SDS011;1329;51.384;7.122;2023-05-07T13:55:28;3.88;;;3.58;;
2638;SDS011;1329;51.384;7.122;2023-05-07T13:57:55;3.88;;;3.47;;
2638;SDS011;1329;51.384;7.122;2023-05-07T14:00:25;4.05;;;3.65;;
2638;SDS011;1329;51.384;7.122;2023-05-07T14:02:53;3.80;;;3.50;;
2638;SDS011;1329;51.384;7.122;2023-05-07T14:05:21;4.45;;;4.07;;
2638;SDS011;1329;51.384;7.122;2023-05-07T14:07:48;4.38;;;3.97;;
2638;SDS011;1329;51.384;7.122;2023-05-07T14:10:16;4.60;;;3.95;;
2638;SDS011;1329;51.384;7.122;2023-05-07T14:12:44;4.18;;;3.88;;
2638;SDS011;1329;51.384;7.122;2023-05-07T14:15:12;3.60;;;3.30;;
2638;SDS011;1329;51.384;7.122;2023-05-07T14:17:40;4.22;;;3.83;;
2638;SDS011;1329;51.384;7.122;2023-05-07T14:20:08;4.35;;;3.90;;
2638;SDS011;1329;51.384;7.122;2023-05-07T14:22:36;4.05;;;3.67;;
2638;SDS011;1329;51.384;7.122;2023-05-07T14:25:03;4.30;;;3.90;;
2638;SDS011;1329;51.384;7.122;2023-05-07T14:27:31;4.07;;;3.78;;
2638;SDS011;1329;51.384;7.122;2023-05-07T14:29:59;4.68;;;3.90;;
2638;SDS011;1329;51.384;7.122;2023-05-07T14:32:26;5.20;;;4.10;;
2638;SDS011;1329;51.384;7.122;2023-05-07T14:34:54;4.63;;;4.22;;
2638;SDS011;1329;51.384;7.122;2023-05-07T14:37:21;4.15;;;3.75;;
2638;SDS011;1329;51.384;7.122;2023-05-07T14:39:48;4.78;;;4.38;;
2638;SDS011;1329;51.384;7.122;2023-05-07T14:42:16;4.72;;;4.10;;
2638;SDS011;1329;51.384;7.122;2023-05-07T14:44:43;4.95;;;4.45;;
2638;SDS011;1329;51.384;7.122;2023-05-07T14:47:12;4.82;;;4.35;;
2638;SDS011;1329;51.384;7.122;2023-05-07T14:49:40;4.90;;;4.20;;
2638;SDS011;1329;51.384;7.122;2023-05-07T14:52:09;5.57;;;4.30;;
2638;SDS011;1329;51.384;7.122;2023-05-07T14:54:37;6.70;;;4.32;;
2638;SDS011;1329;51.384;7.122;2023-05-07T14:57:04;5.03;;;4.53;;
2638;SDS011;1329;51.384;7.122;2023-05-07T14:59:32;5.25;;;4.50;;
2638;SDS011;1329;51.384;7.122;2023-05-07T15:02:00;5.72;;;4.90;;
2638;SDS011;1329;51.384;7.122;2023-05-07T15:04:27;5.85;;;5.30;;
2638;SDS011;1329;51.384;7.122;2023-05-07T15:06:57;5.25;;;4.75;;
2638;SDS011;1329;51.384;7.122;2023-05-07T15:09:25;6.00;;;5.40;;
2638;SDS011;1329;51.384;7.122;2023-05-07T15:11:52;5.38;;;4.88;;
2638;SDS011;1329;51.384;7.122;2023-05-07T15:14:19;6.03;;;5.43;;
2638;SDS011;1329;51.384;7.122;2023-05-07T15:16:46;5.78;;;5.28;;
2638;SDS011;1329;51.384;7.122;2023-05-07T15:19:14;6.00;;;5.15;;
2638;SDS011;1329;51.384;7.122;2023-05-07T15:21:41;6.68;;;6.03;;
2638;SDS011;1329;51.384;7.122;2023-05-07T15:24:08;6.68;;;6.07;;
2638;SDS011;1329;51.384;7.122;2023-05-07T15:26:37;7.10;;;6.45;;
2638;SDS011;1329;51.384;7.122;2023-05-07T15:29:03;7.05;;;6.45;;
2638;SDS011;1329;51.384;7.122;2023-05-07T15:31:34;7.30;;;6.65;;
2638;SDS011;1329;51.384;7.122;2023-05-07T15:34:03;7.47;;;6.78;;
2638;SDS011;1329;51.384;7.122;2023-05-07T15:36:30;7.90;;;7.15;;
2638;SDS011;1329;51.384;7.122;2023-05-07T15:38:57;6.90;;;6.20;;
2638;SDS011;1329;51.384;7.122;2023-05-07T15:41:24;7.35;;;6.43;;
2638;SDS011;1329;51.384;7.122;2023-05-07T15:43:52;6.93;;;6.22;;
2638;SDS011;1329;51.384;7.122;2023-05-07T15:46:20;6.20;;;5.68;;
2638;SDS011;1329;51.384;7.122;2023-05-07T15:48:49;6.65;;;5.75;;
2638;SDS011;1329;51.384;7.122;2023-05-07T15:51:16;6.57;;;5.95;;
2638;SDS011;1329;51.384;7.122;2023-05-07T15:53:43;5.75;;;5.30;;
2638;SDS011;1329;51.384;7.122;2023-05-07T15:56:10;5.47;;;4.97;;
2638;SDS011;1329;51.384;7.122;2023-05-07T15:58:38;5.63;;;5.13;;
2638;SDS011;1329;51.384;7.122;2023-05-07T16:01:06;5.43;;;4.97;;
2638;SDS011;1329;51.384;7.122;2023-05-07T16:03:33;5.75;;;5.25;;